sensor_id;sensor_type;location;lat;lon;timestamp;P1;durP1;ratioP1;P2;durP2;ratioP2
64885;SDS011;51514;52.206;5.114;2023-05-07T00:01:30;47.95;;;32.88;;
64885;SDS011;51514;52.206;5.114;2023-05-07T00:03:56;47.17;;;32.22;;
64885;SDS011;51514;52.206;5.114;2023-05-07T00:06:21;54.70;;;30.95;;
64885;SDS011;51514;52.206;5.114;2023-05-07T00:08:47;48.67;;;32.13;;
64885;SDS011;51514;52.206;5.114;2023-05-07T00:11:12;45.10;;;30.50;;
64885;SDS011;51514;52.206;5.114;2023-05-07T00:13:38;50.38;;;31.92;;
64885;SDS011;51514;52.206;5.114;2023-05-07T00:16:03;46.90;;;32.22;;
64885;SDS011;51514;52.206;5.114;2023-05-07T00:18:29;52.20;;;33.45;;
64885;SDS011;51514;52.206;5.114;2023-05-07T00:20:55;49.95;;;32.08;;
64885;SDS011;51514;52.206;5.114;2023-05-07T00:23:21;46.95;;;31.30;;
64885;SDS011;51514;52.206;5.114;2023-05-07T00:25:47;53.45;;;30.63;;
64885;SDS011;51514;52.206;5.114;2023-05-07T00:28:12;51.65;;;30.08;;
64885;SDS011;51514;52.206;5.114;2023-05-07T00:30:37;61.03;;;33.10;;
64885;SDS011;51514;52.206;5.114;2023-05-07T00:33:02;51.92;;;31.13;;
64885;SDS011;51514;52.206;5.114;2023-05-07T00:35:28;48.22;;;30.17;;
64885;SDS011;51514;52.206;5.114;2023-05-07T00:37:54;42.10;;;28.67;;
64885;SDS011;51514;52.206;5.114;2023-05-07T00:40:20;46.53;;;31.08;;
64885;SDS011;51514;52.206;5.114;2023-05-07T00:42:45;46.15;;;28.95;;
64885;SDS011;51514;52.206;5.114;2023-05-07T00:45:12;39.55;;;28.10;;
64885;SDS011;51514;52.206;5.114;2023-05-07T00:47:38;45.70;;;28.90;;
64885;SDS011;51514;52.206;5.114;2023-05-07T00:50:04;36.75;;;25.77;;
64885;SDS011;51514;52.206;5.114;2023-05-07T00:52:30;39.85;;;27.40;;
64885;SDS011;51514;52.206;5.114;2023-05-07T00:54:56;29.98;;;24.42;;
64885;SDS011;51514;52.206;5.114;2023-05-07T00:57:21;36.00;;;25.02;;
64885;SDS011;51514;52.206;5.114;2023-05-07T00:59:49;32.58;;;25.05;;
64885;SDS011;51514;52.206;5.114;2023-05-07T01:02:16;34.08;;;23.52;;
64885;SDS011;51514;52.206;5.114;2023-05-07T01:04:41;34.47;;;24.48;;
64885;SDS011;51514;52.206;5.114;2023-05-07T01:07:07;32.88;;;24.83;;
64885;SDS011;51514;52.206;5.114;2023-05-07T01:09:33;31.83;;;23.60;;
64885;SDS011;51514;52.206;5.114;2023-05-07T01:12:00;32.65;;;24.30;;
64885;SDS011;51514;52.206;5.114;2023-05-07T01:14:26;29.00;;;23.45;;
64885;SDS011;51514;52.206;5.114;2023-05-07T01:16:52;34.70;;;23.83;;
64885;SDS011;51514;52.206;5.114;2023-05-07T01:19:18;36.33;;;26.10;;
64885;SDS011;51514;52.206;5.114;2023-05-07T01:21:44;35.92;;;25.98;;
64885;SDS011;51514;52.206;5.114;2023-05-07T01:24:12;33.60;;;25.75;;
64885;SDS011;51514;52.206;5.114;2023-05-07T01:26:38;31.85;;;23.40;;
64885;SDS011;51514;52.206;5.114;2023-05-07T01:29:05;33.97;;;24.70;;
64885;SDS011;51514;52.206;5.114;2023-05-07T01:31:32;32.67;;;24.05;;
64885;SDS011;51514;52.206;5.114;2023-05-07T01:33:59;27.85;;;22.85;;
64885;SDS011;51514;52.206;5.114;2023-05-07T01:36:26;27.95;;;22.52;;
64885;SDS011;51514;52.206;5.114;2023-05-07T01:38:55;29.85;;;22.95;;
64885;SDS011;51514;52.206;5.114;2023-05-07T01:41:22;30.45;;;23.00;;
64885;SDS011;51514;52.206;5.114;2023-05-07T01:43:48;26.42;;;22.48;;
64885;SDS011;51514;52.206;5.114;2023-05-07T01:46:16;30.50;;;22.65;;
64885;SDS011;51514;52.206;5.114;2023-05-07T01:48:42;29.13;;;22.55;;
64885;SDS011;51514;52.206;5.114;2023-05-07T01:51:10;30.42;;;23.55;;
64885;SDS011;51514;52.206;5.114;2023-05-07T01:53:37;30.55;;;23.23;;
64885;SDS011;51514;52.206;5.114;2023-05-07T01:56:03;30.23;;;23.95;;
64885;SDS011;51514;52.206;5.114;2023-05-07T01:58:29;38.50;;;26.55;;
64885;SDS011;51514;52.206;5.114;2023-05-07T02:00:54;30.75;;;23.13;;
64885;SDS011;51514;52.206;5.114;2023-05-07T02:03:19;30.52;;;22.77;;
64885;SDS011;51514;52.206;5.114;2023-05-07T02:05:45;30.08;;;22.67;;
64885;SDS011;51514;52.206;5.114;2023-05-07T02:08:10;23.70;;;18.63;;
64885;SDS011;51514;52.206;5.114;2023-05-07T02:10:35;25.88;;;19.33;;
64885;SDS011;51514;52.206;5.114;2023-05-07T02:13:01;20.27;;;16.88;;
64885;SDS011;51514;52.206;5.114;2023-05-07T02:15:27;21.83;;;18.50;;
64885;SDS011;51514;52.206;5.114;2023-05-07T02:17:59;22.98;;;18.02;;
64885;SDS011;51514;52.206;5.114;2023-05-07T02:20:29;21.85;;;16.02;;
64885;SDS011;51514;52.206;5.114;2023-05-07T02:22:54;22.55;;;17.60;;
64885;SDS011;51514;52.206;5.114;2023-05-07T02:25:19;22.98;;;16.08;;
64885;SDS011;51514;52.206;5.114;2023-05-07T02:27:45;17.65;;;13.43;;
64885;SDS011;51514;52.206;5.114;2023-05-07T02:30:10;15.93;;;13.55;;
64885;SDS011;51514;52.206;5.114;2023-05-07T02:32:36;18.17;;;15.48;;
64885;SDS011;51514;52.206;5.114;2023-05-07T02:35:01;19.63;;;14.52;;
64885;SDS011;51514;52.206;5.114;2023-05-07T02:37:26;17.02;;;13.73;;
64885;SDS011;51514;52.206;5.114;2023-05-07T02:39:51;17.27;;;13.50;;
64885;SDS011;51514;52.206;5.114;2023-05-07T02:42:17;18.33;;;13.60;;
64885;SDS011;51514;52.206;5.114;2023-05-07T02:44:42;16.95;;;13.30;;
64885;SDS011;51514;52.206;5.114;2023-05-07T02:47:08;21.42;;;13.70;;
64885;SDS011;51514;52.206;5.114;2023-05-07T02:49:34;18.08;;;13.90;;
64885;SDS011;51514;52.206;5.114;2023-05-07T02:52:00;17.02;;;13.23;;
64885;SDS011;51514;52.206;5.114;2023-05-07T02:54:26;18.17;;;14.63;;
64885;SDS011;51514;52.206;5.114;2023-05-07T02:56:51;18.08;;;14.48;;
64885;SDS011;51514;52.206;5.114;2023-05-07T02:59:17;21.98;;;14.90;;
64885;SDS011;51514;52.206;5.114;2023-05-07T03:01:42;20.00;;;15.68;;
64885;SDS011;51514;52.206;5.114;2023-05-07T03:04:10;18.42;;;14.70;;
64885;SDS011;51514;52.206;5.114;2023-05-07T03:06:35;23.25;;;16.23;;
64885;SDS011;51514;52.206;5.114;2023-05-07T03:09:01;21.75;;;17.20;;
64885;SDS011;51514;52.206;5.114;2023-05-07T03:11:26;20.20;;;16.92;;
64885;SDS011;51514;52.206;5.114;2023-05-07T03:13:52;19.92;;;16.85;;
64885;SDS011;51514;52.206;5.114;2023-05-07T03:16:17;21.33;;;17.50;;
64885;SDS011;51514;52.206;5.114;2023-05-07T03:18:42;21.92;;;18.85;;
64885;SDS011;51514;52.206;5.114;2023-05-07T03:21:08;21.90;;;17.80;;
64885;SDS011;51514;52.206;5.114;2023-05-07T03:23:33;21.35;;;17.60;;
64885;SDS011;51514;52.206;5.114;2023-05-07T03:25:59;21.60;;;18.23;;
64885;SDS011;51514;52.206;5.114;2023-05-07T03:28:24;20.80;;;18.60;;
64885;SDS011;51514;52.206;5.114;2023-05-07T03:30:49;23.65;;;18.90;;
64885;SDS011;51514;52.206;5.114;2023-05-07T03:33:15;21.73;;;16.92;;
64885;SDS011;51514;52.206;5.114;2023-05-07T03:35:40;22.00;;;18.00;;
64885;SDS011;51514;52.206;5.114;2023-05-07T03:38:06;22.55;;;17.45;;
64885;SDS011;51514;52.206;5.114;2023-05-07T03:40:32;20.15;;;17.95;;
64885;SDS011;51514;52.206;5.114;2023-05-07T03:42:58;21.50;;;19.05;;
64885;SDS011;51514;52.206;5.114;2023-05-07T03:45:24;20.23;;;18.05;;
64885;SDS011;51514;52.206;5.114;2023-05-07T03:47:50;22.60;;;19.88;;
64885;SDS011;51514;52.206;5.114;2023-05-07T03:50:15;23.70;;;20.25;;
64885;SDS011;51514;52.206;5.114;2023-05-07T03:52:40;30.92;;;20.75;;
64885;SDS011;51514;52.206;5.114;2023-05-07T03:55:06;25.27;;;20.58;;
64885;SDS011;51514;52.206;5.114;2023-05-07T03:57:32;28.15;;;21.50;;
64885;SDS011;51514;52.206;5.114;2023-05-07T03:59:57;26.67;;;22.70;;
64885;SDS011;51514;52.206;5.114;2023-05-07T04:02:23;24.70;;;21.83;;
64885;SDS011;51514;52.206;5.114;2023-05-07T04:04:48;27.80;;;23.60;;
64885;SDS011;51514;52.206;5.114;2023-05-07T04:07:14;29.00;;;24.48;;
64885;SDS011;51514;52.206;5.114;2023-05-07T04:09:40;30.65;;;24.85;;
64885;SDS011;51514;52.206;5.114;2023-05-07T04:12:05;30.58;;;26.50;;
64885;SDS011;51514;52.206;5.114;2023-05-07T04:14:30;33.85;;;26.48;;
64885;SDS011;51514;52.206;5.114;2023-05-07T04:16:57;31.70;;;25.55;;
64885;SDS011;51514;52.206;5.114;2023-05-07T04:19:23;28.35;;;25.17;;
64885;SDS011;51514;52.206;5.114;2023-05-07T04:21:48;35.95;;;25.88;;
64885;SDS011;51514;52.206;5.114;2023-05-07T04:24:14;34.03;;;25.58;;
64885;SDS011;51514;52.206;5.114;2023-05-07T04:26:39;36.33;;;27.00;;
64885;SDS011;51514;52.206;5.114;2023-05-07T04:29:05;34.78;;;27.50;;
64885;SDS011;51514;52.206;5.114;2023-05-07T04:31:30;32.95;;;27.00;;
64885;SDS011;51514;52.206;5.114;2023-05-07T04:33:56;34.67;;;26.85;;
64885;SDS011;51514;52.206;5.114;2023-05-07T04:36:22;33.08;;;27.48;;
64885;SDS011;51514;52.206;5.114;2023-05-07T04:38:47;31.70;;;25.75;;
64885;SDS011;51514;52.206;5.114;2023-05-07T04:41:12;32.92;;;26.60;;
64885;SDS011;51514;52.206;5.114;2023-05-07T04:43:38;32.88;;;26.17;;
64885;SDS011;51514;52.206;5.114;2023-05-07T04:46:03;27.92;;;24.73;;
64885;SDS011;51514;52.206;5.114;2023-05-07T04:48:29;32.20;;;25.77;;
64885;SDS011;51514;52.206;5.114;2023-05-07T04:50:55;29.38;;;23.52;;
64885;SDS011;51514;52.206;5.114;2023-05-07T04:53:20;30.02;;;25.23;;
64885;SDS011;51514;52.206;5.114;2023-05-07T04:55:46;31.40;;;24.98;;
64885;SDS011;51514;52.206;5.114;2023-05-07T04:58:12;26.48;;;23.00;;
64885;SDS011;51514;52.206;5.114;2023-05-07T05:00:37;29.58;;;23.58;;
64885;SDS011;51514;52.206;5.114;2023-05-07T05:03:04;26.60;;;23.58;;
64885;SDS011;51514;52.206;5.114;2023-05-07T05:05:30;30.23;;;25.45;;
64885;SDS011;51514;52.206;5.114;2023-05-07T05:07:55;31.45;;;24.48;;
64885;SDS011;51514;52.206;5.114;2023-05-07T05:10:21;26.63;;;22.75;;
64885;SDS011;51514;52.206;5.114;2023-05-07T05:12:47;27.42;;;23.40;;
64885;SDS011;51514;52.206;5.114;2023-05-07T05:15:12;29.60;;;23.92;;
64885;SDS011;51514;52.206;5.114;2023-05-07T05:17:38;28.30;;;23.00;;
64885;SDS011;51514;52.206;5.114;2023-05-07T05:20:04;27.33;;;22.98;;
64885;SDS011;51514;52.206;5.114;2023-05-07T05:22:30;26.42;;;23.40;;
64885;SDS011;51514;52.206;5.114;2023-05-07T05:24:56;28.50;;;23.30;;
64885;SDS011;51514;52.206;5.114;2023-05-07T05:27:22;26.33;;;22.13;;
64885;SDS011;51514;52.206;5.114;2023-05-07T05:29:47;26.92;;;22.27;;
64885;SDS011;51514;52.206;5.114;2023-05-07T05:32:13;24.10;;;21.52;;
64885;SDS011;51514;52.206;5.114;2023-05-07T05:34:38;27.23;;;21.02;;
64885;SDS011;51514;52.206;5.114;2023-05-07T05:37:03;22.60;;;20.08;;
64885;SDS011;51514;52.206;5.114;2023-05-07T05:39:29;24.08;;;19.88;;
64885;SDS011;51514;52.206;5.114;2023-05-07T05:41:54;25.83;;;19.48;;
64885;SDS011;51514;52.206;5.114;2023-05-07T05:44:19;24.45;;;19.60;;
64885;SDS011;51514;52.206;5.114;2023-05-07T05:46:45;24.85;;;20.05;;
64885;SDS011;51514;52.206;5.114;2023-05-07T05:49:10;22.83;;;18.95;;
64885;SDS011;51514;52.206;5.114;2023-05-07T05:51:35;21.92;;;19.58;;
64885;SDS011;51514;52.206;5.114;2023-05-07T05:54:01;25.83;;;19.30;;
64885;SDS011;51514;52.206;5.114;2023-05-07T05:56:26;25.73;;;20.38;;
64885;SDS011;51514;52.206;5.114;2023-05-07T05:58:52;24.70;;;20.02;;
64885;SDS011;51514;52.206;5.114;2023-05-07T06:01:17;24.20;;;18.95;;
64885;SDS011;51514;52.206;5.114;2023-05-07T06:03:44;27.00;;;21.02;;
64885;SDS011;51514;52.206;5.114;2023-05-07T06:06:09;24.15;;;20.35;;
64885;SDS011;51514;52.206;5.114;2023-05-07T06:08:34;25.52;;;21.38;;
64885;SDS011;51514;52.206;5.114;2023-05-07T06:11:00;23.80;;;20.23;;
64885;SDS011;51514;52.206;5.114;2023-05-07T06:13:26;25.10;;;20.55;;
64885;SDS011;51514;52.206;5.114;2023-05-07T06:15:51;29.08;;;22.85;;
64885;SDS011;51514;52.206;5.114;2023-05-07T06:18:17;27.92;;;20.90;;
64885;SDS011;51514;52.206;5.114;2023-05-07T06:20:42;28.02;;;20.98;;
64885;SDS011;51514;52.206;5.114;2023-05-07T06:23:07;29.27;;;22.20;;
64885;SDS011;51514;52.206;5.114;2023-05-07T06:25:33;31.25;;;23.42;;
64885;SDS011;51514;52.206;5.114;2023-05-07T06:27:58;28.63;;;21.55;;
64885;SDS011;51514;52.206;5.114;2023-05-07T06:30:23;27.25;;;21.65;;
64885;SDS011;51514;52.206;5.114;2023-05-07T06:32:49;28.00;;;21.35;;
64885;SDS011;51514;52.206;5.114;2023-05-07T06:35:14;31.42;;;24.02;;
64885;SDS011;51514;52.206;5.114;2023-05-07T06:37:40;32.20;;;23.65;;
64885;SDS011;51514;52.206;5.114;2023-05-07T06:40:07;29.02;;;23.58;;
64885;SDS011;51514;52.206;5.114;2023-05-07T06:42:33;32.08;;;23.40;;
64885;SDS011;51514;52.206;5.114;2023-05-07T06:44:58;27.83;;;23.60;;
64885;SDS011;51514;52.206;5.114;2023-05-07T06:47:24;29.15;;;22.45;;
64885;SDS011;51514;52.206;5.114;2023-05-07T06:49:49;29.30;;;22.55;;
64885;SDS011;51514;52.206;5.114;2023-05-07T06:52:15;30.90;;;23.70;;
64885;SDS011;51514;52.206;5.114;2023-05-07T06:54:40;34.80;;;24.70;;
64885;SDS011;51514;52.206;5.114;2023-05-07T06:57:05;31.80;;;23.95;;
64885;SDS011;51514;52.206;5.114;2023-05-07T06:59:31;30.73;;;24.95;;
64885;SDS011;51514;52.206;5.114;2023-05-07T07:01:56;29.13;;;23.60;;
64885;SDS011;51514;52.206;5.114;2023-05-07T07:04:21;31.25;;;23.73;;
64885;SDS011;51514;52.206;5.114;2023-05-07T07:06:48;28.27;;;24.20;;
64885;SDS011;51514;52.206;5.114;2023-05-07T07:09:14;28.85;;;23.52;;
64885;SDS011;51514;52.206;5.114;2023-05-07T07:11:39;28.88;;;23.05;;
64885;SDS011;51514;52.206;5.114;2023-05-07T07:14:04;31.63;;;23.10;;
64885;SDS011;51514;52.206;5.114;2023-05-07T07:16:30;29.95;;;23.65;;
64885;SDS011;51514;52.206;5.114;2023-05-07T07:18:55;35.88;;;25.85;;
64885;SDS011;51514;52.206;5.114;2023-05-07T07:21:20;30.85;;;24.50;;
64885;SDS011;51514;52.206;5.114;2023-05-07T07:23:46;31.55;;;25.23;;
64885;SDS011;51514;52.206;5.114;2023-05-07T07:26:11;31.65;;;24.55;;
64885;SDS011;51514;52.206;5.114;2023-05-07T07:28:41;31.33;;;24.30;;
64885;SDS011;51514;52.206;5.114;2023-05-07T07:31:07;30.63;;;25.02;;
64885;SDS011;51514;52.206;5.114;2023-05-07T07:33:33;30.98;;;26.02;;
64885;SDS011;51514;52.206;5.114;2023-05-07T07:35:58;27.10;;;22.42;;
64885;SDS011;51514;52.206;5.114;2023-05-07T07:38:23;26.13;;;23.27;;
64885;SDS011;51514;52.206;5.114;2023-05-07T07:40:49;31.05;;;25.05;;
64885;SDS011;51514;52.206;5.114;2023-05-07T07:43:14;26.83;;;22.65;;
64885;SDS011;51514;52.206;5.114;2023-05-07T07:45:39;29.02;;;22.05;;
64885;SDS011;51514;52.206;5.114;2023-05-07T07:48:05;32.70;;;22.20;;
64885;SDS011;51514;52.206;5.114;2023-05-07T07:50:30;26.67;;;22.50;;
64885;SDS011;51514;52.206;5.114;2023-05-07T07:52:55;31.38;;;24.13;;
64885;SDS011;51514;52.206;5.114;2023-05-07T07:55:22;27.98;;;22.60;;
64885;SDS011;51514;52.206;5.114;2023-05-07T07:57:48;27.45;;;24.42;;
64885;SDS011;51514;52.206;5.114;2023-05-07T08:00:14;28.55;;;23.27;;
64885;SDS011;51514;52.206;5.114;2023-05-07T08:02:40;28.52;;;23.23;;
64885;SDS011;51514;52.206;5.114;2023-05-07T08:05:06;27.25;;;23.13;;
64885;SDS011;51514;52.206;5.114;2023-05-07T08:07:31;34.10;;;25.83;;
64885;SDS011;51514;52.206;5.114;2023-05-07T08:09:57;39.80;;;26.92;;
64885;SDS011;51514;52.206;5.114;2023-05-07T08:12:22;30.10;;;24.50;;
64885;SDS011;51514;52.206;5.114;2023-05-07T08:14:47;34.65;;;23.55;;
64885;SDS011;51514;52.206;5.114;2023-05-07T08:17:13;34.83;;;24.08;;
64885;SDS011;51514;52.206;5.114;2023-05-07T08:19:40;31.85;;;25.85;;
64885;SDS011;51514;52.206;5.114;2023-05-07T08:22:06;31.45;;;24.38;;
64885;SDS011;51514;52.206;5.114;2023-05-07T08:24:31;26.08;;;22.35;;
64885;SDS011;51514;52.206;5.114;2023-05-07T08:26:57;27.27;;;24.30;;
64885;SDS011;51514;52.206;5.114;2023-05-07T08:29:22;27.23;;;22.10;;
64885;SDS011;51514;52.206;5.114;2023-05-07T08:31:47;29.27;;;24.38;;
64885;SDS011;51514;52.206;5.114;2023-05-07T08:34:13;28.92;;;23.38;;
64885;SDS011;51514;52.206;5.114;2023-05-07T08:36:38;30.02;;;25.33;;
64885;SDS011;51514;52.206;5.114;2023-05-07T08:39:03;26.88;;;22.95;;
64885;SDS011;51514;52.206;5.114;2023-05-07T08:41:29;27.52;;;23.92;;
64885;SDS011;51514;52.206;5.114;2023-05-07T08:43:55;28.02;;;21.50;;
64885;SDS011;51514;52.206;5.114;2023-05-07T08:46:23;28.23;;;22.45;;
64885;SDS011;51514;52.206;5.114;2023-05-07T08:48:51;24.48;;;21.42;;
64885;SDS011;51514;52.206;5.114;2023-05-07T08:51:18;22.95;;;20.45;;
64885;SDS011;51514;52.206;5.114;2023-05-07T08:53:45;24.80;;;22.00;;
64885;SDS011;51514;52.206;5.114;2023-05-07T08:56:13;22.75;;;20.10;;
64885;SDS011;51514;52.206;5.114;2023-05-07T08:58:40;21.17;;;18.05;;
64885;SDS011;51514;52.206;5.114;2023-05-07T09:01:10;21.77;;;19.48;;
64885;SDS011;51514;52.206;5.114;2023-05-07T09:03:41;20.35;;;18.15;;
64885;SDS011;51514;52.206;5.114;2023-05-07T09:06:09;22.07;;;19.80;;
64885;SDS011;51514;52.206;5.114;2023-05-07T09:08:35;21.70;;;18.70;;
64885;SDS011;51514;52.206;5.114;2023-05-07T09:11:01;18.40;;;16.33;;
64885;SDS011;51514;52.206;5.114;2023-05-07T09:13:26;15.90;;;14.20;;
64885;SDS011;51514;52.206;5.114;2023-05-07T09:15:52;14.95;;;13.35;;
64885;SDS011;51514;52.206;5.114;2023-05-07T09:18:17;15.98;;;13.35;;
64885;SDS011;51514;52.206;5.114;2023-05-07T09:20:43;17.20;;;13.70;;
64885;SDS011;51514;52.206;5.114;2023-05-07T09:23:08;19.23;;;14.18;;
64885;SDS011;51514;52.206;5.114;2023-05-07T09:57:20;16.02;;;12.93;;
64885;SDS011;51514;52.206;5.114;2023-05-07T09:59:47;15.02;;;13.07;;
64885;SDS011;51514;52.206;5.114;2023-05-07T10:02:15;14.45;;;12.55;;
64885;SDS011;51514;52.206;5.114;2023-05-07T10:04:44;16.70;;;13.15;;
64885;SDS011;51514;52.206;5.114;2023-05-07T10:07:11;15.80;;;12.13;;
64885;SDS011;51514;52.206;5.114;2023-05-07T10:09:37;13.45;;;11.02;;
64885;SDS011;51514;52.206;5.114;2023-05-07T10:12:03;11.52;;;10.27;;
64885;SDS011;51514;52.206;5.114;2023-05-07T10:14:30;13.73;;;10.65;;
64885;SDS011;51514;52.206;5.114;2023-05-07T10:16:56;12.75;;;10.05;;
64885;SDS011;51514;52.206;5.114;2023-05-07T10:19:22;11.43;;;9.77;;
64885;SDS011;51514;52.206;5.114;2023-05-07T10:21:51;14.65;;;11.98;;
64885;SDS011;51514;52.206;5.114;2023-05-07T10:24:22;14.40;;;10.27;;
64885;SDS011;51514;52.206;5.114;2023-05-07T10:26:51;12.40;;;10.32;;
64885;SDS011;51514;52.206;5.114;2023-05-07T10:34:47;13.65;;;9.52;;
64885;SDS011;51514;52.206;5.114;2023-05-07T10:37:15;12.27;;;9.63;;
64885;SDS011;51514;52.206;5.114;2023-05-07T10:39:42;10.85;;;9.73;;
64885;SDS011;51514;52.206;5.114;2023-05-07T10:42:11;11.80;;;10.55;;
64885;SDS011;51514;52.206;5.114;2023-05-07T10:44:38;14.80;;;10.50;;
64885;SDS011;51514;52.206;5.114;2023-05-07T10:47:04;14.45;;;11.73;;
64885;SDS011;51514;52.206;5.114;2023-05-07T10:49:30;13.80;;;10.30;;
64885;SDS011;51514;52.206;5.114;2023-05-07T10:57:39;10.35;;;9.25;;
64885;SDS011;51514;52.206;5.114;2023-05-07T11:05:26;14.77;;;8.98;;
64885;SDS011;51514;52.206;5.114;2023-05-07T11:07:59;12.45;;;8.80;;
64885;SDS011;51514;52.206;5.114;2023-05-07T11:15:50;12.10;;;7.95;;
64885;SDS011;51514;52.206;5.114;2023-05-07T11:18:17;7.63;;;6.38;;
64885;SDS011;51514;52.206;5.114;2023-05-07T11:20:58;11.55;;;7.72;;
64885;SDS011;51514;52.206;5.114;2023-05-07T11:26:05;11.45;;;6.38;;
64885;SDS011;51514;52.206;5.114;2023-05-07T11:28:31;14.07;;;7.22;;
64885;SDS011;51514;52.206;5.114;2023-05-07T11:31:02;10.82;;;5.93;;
64885;SDS011;51514;52.206;5.114;2023-05-07T11:33:27;13.38;;;6.38;;
64885;SDS011;51514;52.206;5.114;2023-05-07T11:35:54;8.18;;;5.50;;
64885;SDS011;51514;52.206;5.114;2023-05-07T11:38:19;7.07;;;4.97;;
64885;SDS011;51514;52.206;5.114;2023-05-07T11:40:55;7.25;;;4.78;;
64885;SDS011;51514;52.206;5.114;2023-05-07T11:43:22;8.50;;;4.50;;
64885;SDS011;51514;52.206;5.114;2023-05-07T11:45:47;8.35;;;4.15;;
64885;SDS011;51514;52.206;5.114;2023-05-07T11:48:14;8.73;;;5.07;;
64885;SDS011;51514;52.206;5.114;2023-05-07T11:50:53;8.05;;;4.20;;
64885;SDS011;51514;52.206;5.114;2023-05-07T11:53:25;7.32;;;4.60;;
64885;SDS011;51514;52.206;5.114;2023-05-07T11:55:57;10.23;;;5.38;;
64885;SDS011;51514;52.206;5.114;2023-05-07T11:58:23;9.55;;;6.13;;
64885;SDS011;51514;52.206;5.114;2023-05-07T12:00:53;11.60;;;5.60;;
64885;SDS011;51514;52.206;5.114;2023-05-07T12:03:19;8.07;;;5.28;;
64885;SDS011;51514;52.206;5.114;2023-05-07T12:05:46;10.60;;;4.78;;
64885;SDS011;51514;52.206;5.114;2023-05-07T12:08:18;10.68;;;4.70;;
64885;SDS011;51514;52.206;5.114;2023-05-07T12:10:45;7.82;;;4.30;;
64885;SDS011;51514;52.206;5.114;2023-05-07T12:13:19;7.47;;;4.15;;
64885;SDS011;51514;52.206;5.114;2023-05-07T12:15:45;8.60;;;3.67;;
64885;SDS011;51514;52.206;5.114;2023-05-07T12:18:13;10.38;;;3.97;;
64885;SDS011;51514;52.206;5.114;2023-05-07T12:20:39;7.57;;;4.15;;
64885;SDS011;51514;52.206;5.114;2023-05-07T12:23:05;10.13;;;4.20;;
64885;SDS011;51514;52.206;5.114;2023-05-07T12:25:31;7.50;;;3.42;;
64885;SDS011;51514;52.206;5.114;2023-05-07T12:27:57;6.53;;;3.88;;
64885;SDS011;51514;52.206;5.114;2023-05-07T12:30:25;8.20;;;3.83;;
64885;SDS011;51514;52.206;5.114;2023-05-07T12:32:54;7.70;;;4.10;;
64885;SDS011;51514;52.206;5.114;2023-05-07T12:35:28;8.18;;;3.47;;
64885;SDS011;51514;52.206;5.114;2023-05-07T12:37:58;7.43;;;4.50;;
64885;SDS011;51514;52.206;5.114;2023-05-07T12:40:33;9.15;;;3.20;;
64885;SDS011;51514;52.206;5.114;2023-05-07T12:43:00;8.35;;;3.75;;
64885;SDS011;51514;52.206;5.114;2023-05-07T12:45:26;7.25;;;3.42;;
64885;SDS011;51514;52.206;5.114;2023-05-07T12:47:51;9.07;;;3.53;;
64885;SDS011;51514;52.206;5.114;2023-05-07T12:50:17;9.48;;;3.50;;
64885;SDS011;51514;52.206;5.114;2023-05-07T12:52:42;6.88;;;3.60;;
64885;SDS011;51514;52.206;5.114;2023-05-07T12:55:13;6.25;;;3.13;;
64885;SDS011;51514;52.206;5.114;2023-05-07T12:57:41;7.60;;;3.35;;
64885;SDS011;51514;52.206;5.114;2023-05-07T13:00:08;8.48;;;3.70;;
64885;SDS011;51514;52.206;5.114;2023-05-07T13:02:37;12.07;;;4.35;;
64885;SDS011;51514;52.206;5.114;2023-05-07T13:05:03;8.48;;;3.95;;
64885;SDS011;51514;52.206;5.114;2023-05-07T13:07:29;8.57;;;4.35;;
64885;SDS011;51514;52.206;5.114;2023-05-07T13:09:54;7.25;;;5.55;;
64885;SDS011;51514;52.206;5.114;2023-05-07T13:12:19;9.73;;;5.15;;
64885;SDS011;51514;52.206;5.114;2023-05-07T13:14:45;7.47;;;5.63;;
64885;SDS011;51514;52.206;5.114;2023-05-07T13:17:10;11.65;;;6.13;;
64885;SDS011;51514;52.206;5.114;2023-05-07T13:19:36;8.25;;;5.18;;
64885;SDS011;51514;52.206;5.114;2023-05-07T13:22:02;9.05;;;5.00;;
64885;SDS011;51514;52.206;5.114;2023-05-07T13:24:28;8.50;;;6.13;;
64885;SDS011;51514;52.206;5.114;2023-05-07T13:26:53;9.93;;;5.30;;
64885;SDS011;51514;52.206;5.114;2023-05-07T13:29:19;9.13;;;5.00;;
64885;SDS011;51514;52.206;5.114;2023-05-07T13:31:46;10.88;;;5.25;;
64885;SDS011;51514;52.206;5.114;2023-05-07T13:34:11;10.43;;;4.90;;
64885;SDS011;51514;52.206;5.114;2023-05-07T13:36:36;7.93;;;5.43;;
64885;SDS011;51514;52.206;5.114;2023-05-07T13:39:04;6.63;;;4.50;;
64885;SDS011;51514;52.206;5.114;2023-05-07T13:41:31;8.98;;;5.15;;
64885;SDS011;51514;52.206;5.114;2023-05-07T13:43:56;8.98;;;5.35;;
64885;SDS011;51514;52.206;5.114;2023-05-07T13:46:21;7.53;;;4.68;;
64885;SDS011;51514;52.206;5.114;2023-05-07T13:48:47;9.32;;;4.63;;
64885;SDS011;51514;52.206;5.114;2023-05-07T13:51:12;7.53;;;4.60;;
64885;SDS011;51514;52.206;5.114;2023-05-07T13:53:38;6.93;;;4.70;;
64885;SDS011;51514;52.206;5.114;2023-05-07T13:56:03;9.65;;;4.25;;
64885;SDS011;51514;52.206;5.114;2023-05-07T13:58:29;9.70;;;5.22;;
64885;SDS011;51514;52.206;5.114;2023-05-07T14:00:55;8.48;;;6.00;;
64885;SDS011;51514;52.206;5.114;2023-05-07T14:03:23;12.60;;;8.48;;
64885;SDS011;51514;52.206;5.114;2023-05-07T14:05:48;13.65;;;8.13;;
64885;SDS011;51514;52.206;5.114;2023-05-07T14:08:13;13.00;;;8.23;;
64885;SDS011;51514;52.206;5.114;2023-05-07T14:10:39;13.82;;;9.82;;
64885;SDS011;51514;52.206;5.114;2023-05-07T14:13:20;11.93;;;10.23;;
64885;SDS011;51514;52.206;5.114;2023-05-07T14:15:45;11.32;;;9.55;;
64885;SDS011;51514;52.206;5.114;2023-05-07T14:18:12;15.18;;;10.43;;
64885;SDS011;51514;52.206;5.114;2023-05-07T14:20:37;16.52;;;11.35;;
64885;SDS011;51514;52.206;5.114;2023-05-07T14:23:03;15.48;;;11.15;;
64885;SDS011;51514;52.206;5.114;2023-05-07T14:25:28;20.15;;;13.07;;
64885;SDS011;51514;52.206;5.114;2023-05-07T14:27:54;20.23;;;12.40;;
64885;SDS011;51514;52.206;5.114;2023-05-07T14:30:19;19.80;;;12.45;;
64885;SDS011;51514;52.206;5.114;2023-05-07T14:32:44;13.93;;;10.70;;
64885;SDS011;51514;52.206;5.114;2023-05-07T14:35:10;22.27;;;13.50;;
64885;SDS011;51514;52.206;5.114;2023-05-07T14:40:57;38.45;;;19.45;;
64885;SDS011;51514;52.206;5.114;2023-05-07T14:43:22;31.55;;;22.05;;
64885;SDS011;51514;52.206;5.114;2023-05-07T14:45:47;26.77;;;17.60;;
64885;SDS011;51514;52.206;5.114;2023-05-07T14:48:13;44.55;;;26.25;;
64885;SDS011;51514;52.206;5.114;2023-05-07T14:54:01;34.80;;;26.13;;
64885;SDS011;51514;52.206;5.114;2023-05-07T14:56:28;24.92;;;21.92;;
64885;SDS011;51514;52.206;5.114;2023-05-07T14:58:53;32.85;;;24.45;;
64885;SDS011;51514;52.206;5.114;2023-05-07T15:01:19;34.50;;;26.73;;
64885;SDS011;51514;52.206;5.114;2023-05-07T15:03:45;35.88;;;27.45;;
64885;SDS011;51514;52.206;5.114;2023-05-07T15:09:35;35.85;;;25.25;;
64885;SDS011;51514;52.206;5.114;2023-05-07T15:18:44;23.23;;;14.90;;
64885;SDS011;51514;52.206;5.114;2023-05-07T15:21:09;21.85;;;14.52;;
64885;SDS011;51514;52.206;5.114;2023-05-07T15:23:35;25.25;;;15.05;;
64885;SDS011;51514;52.206;5.114;2023-05-07T15:26:00;19.55;;;12.80;;
64885;SDS011;51514;52.206;5.114;2023-05-07T15:28:26;16.42;;;12.23;;
64885;SDS011;51514;52.206;5.114;2023-05-07T15:30:53;13.52;;;10.80;;
64885;SDS011;51514;52.206;5.114;2023-05-07T15:33:19;15.65;;;10.45;;